createdAt,value
2019-01-17T00:01:23.496Z,11.13
2019-01-17T00:04:11.982Z,11.47
2019-01-17T00:07:00.698Z,13.90
2019-01-17T00:12:44.501Z,13.70
2019-01-17T00:18:14.165Z,15.27
2019-01-17T00:21:02.643Z,17.03
2019-01-17T00:23:51.107Z,12.47
2019-01-17T00:29:18.872Z,15.37
2019-01-17T00:32:07.348Z,11.97
2019-01-17T00:34:55.825Z,11.40
2019-01-17T00:37:44.300Z,16.30
2019-01-17T00:43:28.361Z,11.10
2019-01-17T00:49:25.923Z,8.07
2019-01-17T00:52:14.657Z,11.13
2019-01-17T00:57:58.663Z,16.33
2019-01-17T01:00:47.111Z,15.60
2019-01-17T01:06:16.048Z,14.30
2019-01-17T01:09:04.509Z,17.23
2019-01-17T01:11:52.987Z,11.63
2019-01-17T01:14:41.450Z,15.10
2019-01-17T01:17:30.181Z,10.20
2019-01-17T01:20:18.678Z,13.53
2019-01-17T01:23:07.153Z,11.30
2019-01-17T01:28:36.457Z,15.47
2019-01-17T01:31:24.938Z,12.20
2019-01-17T01:34:13.400Z,11.10
2019-01-17T01:39:42.412Z,9.63
2019-01-17T01:42:31.131Z,10.67
2019-01-17T01:45:19.599Z,10.83
2019-01-17T01:48:08.084Z,10.40
2019-01-17T01:56:21.769Z,7.17
2019-01-17T01:58:51.123Z,8.70
2019-01-17T02:01:20.448Z,7.20
2019-01-17T02:03:49.794Z,7.60
2019-01-17T02:06:19.132Z,5.77
2019-01-17T02:11:42.470Z,9.00
2019-01-17T02:17:05.786Z,11.53
2019-01-17T02:19:35.132Z,7.03
2019-01-17T02:22:35.523Z,10.97
2019-01-17T02:28:06.881Z,10.47
2019-01-17T02:30:36.226Z,11.10
2019-01-17T02:33:05.561Z,11.33
2019-01-17T02:35:35.131Z,9.17
2019-01-17T02:38:04.460Z,8.83
2019-01-17T02:40:33.802Z,4.97
2019-01-17T02:43:03.399Z,11.47
2019-01-17T02:45:32.742Z,3.90
2019-01-17T02:48:02.084Z,3.00
2019-01-17T02:50:31.410Z,5.30
2019-01-17T02:53:00.918Z,3.87
2019-01-17T02:55:30.232Z,6.23
2019-01-17T02:57:59.559Z,4.17
2019-01-17T03:03:09.522Z,7.50
2019-01-17T03:05:38.857Z,2.53
2019-01-17T03:08:08.173Z,2.47
2019-01-17T03:10:48.918Z,4.20
2019-01-17T03:13:18.482Z,4.83
2019-01-17T03:15:48.081Z,1.50
2019-01-17T03:18:17.399Z,3.70
2019-01-17T03:20:46.739Z,4.60
2019-01-17T03:23:16.050Z,4.37
2019-01-17T03:25:45.639Z,2.53
2019-01-17T03:31:29.343Z,3.20
2019-01-17T03:33:58.653Z,2.00
2019-01-17T03:36:28.006Z,4.00
2019-01-17T03:38:57.314Z,3.20
2019-01-17T03:41:26.657Z,4.37
2019-01-17T03:43:55.982Z,4.13
2019-01-17T03:46:26.936Z,3.47
2019-01-17T03:48:56.256Z,2.70
2019-01-17T03:51:25.590Z,4.17
2019-01-17T03:53:54.914Z,3.60
2019-01-17T03:56:24.245Z,2.17
2019-01-17T03:58:53.823Z,2.60
2019-01-17T04:01:23.157Z,3.43
2019-01-17T04:03:52.470Z,2.43
2019-01-17T04:06:21.811Z,3.60
2019-01-17T04:08:51.432Z,2.60
2019-01-17T04:11:20.752Z,5.10
2019-01-17T04:13:50.095Z,3.17
2019-01-17T04:16:19.650Z,4.47
2019-01-17T04:18:48.984Z,3.23
2019-01-17T04:21:19.916Z,4.63
2019-01-17T04:23:49.590Z,3.50
2019-01-17T04:26:18.912Z,4.17
2019-01-17T04:28:48.310Z,3.43
2019-01-17T04:31:17.634Z,3.17
2019-01-17T04:33:46.959Z,3.07
2019-01-17T04:36:16.613Z,3.10
2019-01-17T04:38:45.929Z,3.60
2019-01-17T04:43:57.869Z,3.40
2019-01-17T04:46:27.222Z,3.37
2019-01-17T04:48:58.158Z,4.00
2019-01-17T04:51:27.494Z,3.93
2019-01-17T04:53:56.828Z,3.57
2019-01-17T04:56:26.146Z,3.53
2019-01-17T04:58:55.502Z,3.00
2019-01-17T05:01:24.810Z,4.30
2019-01-17T05:03:54.152Z,3.90
2019-01-17T05:06:23.475Z,4.47
2019-01-17T05:08:52.814Z,4.93
2019-01-17T05:11:23.747Z,4.10
2019-01-17T05:13:53.083Z,4.37
2019-01-17T05:16:22.404Z,5.67
2019-01-17T05:19:31.815Z,4.20
2019-01-17T05:22:01.138Z,5.60
2019-01-17T05:24:49.613Z,5.00
2019-01-17T05:27:19.261Z,6.33
2019-01-17T05:29:48.644Z,3.80
2019-01-17T05:32:18.018Z,4.03
2019-01-17T05:34:47.657Z,4.43
2019-01-17T05:37:16.990Z,5.10
2019-01-17T05:39:47.926Z,4.20
2019-01-17T05:42:17.265Z,5.70
2019-01-17T05:44:46.586Z,6.43
2019-01-17T05:47:15.918Z,2.97
2019-01-17T05:49:45.073Z,5.73
2019-01-17T05:52:14.389Z,3.97
2019-01-17T05:54:43.705Z,7.63
2019-01-17T05:57:13.047Z,5.73
2019-01-17T05:59:42.384Z,6.40
2019-01-17T06:05:13.569Z,7.50
2019-01-17T06:07:42.922Z,7.40
2019-01-17T06:16:10.105Z,5.67
2019-01-17T06:18:39.508Z,6.87
2019-01-17T06:21:08.841Z,5.93
2019-01-17T06:23:38.410Z,7.00
2019-01-17T06:26:09.446Z,7.73
2019-01-17T06:28:38.773Z,8.70
2019-01-17T06:31:08.099Z,8.00
2019-01-17T06:33:37.433Z,6.87
2019-01-17T06:36:06.775Z,5.93
2019-01-17T06:38:36.347Z,8.70
2019-01-17T06:41:05.669Z,7.13
2019-01-17T06:43:35.013Z,9.77
2019-01-17T06:46:04.422Z,10.50
2019-01-17T06:48:33.750Z,5.00
2019-01-17T06:51:03.086Z,7.07
2019-01-17T06:53:32.427Z,9.27
2019-01-17T06:56:01.767Z,7.40
2019-01-17T06:58:31.128Z,8.10
2019-01-17T07:01:00.474Z,9.63
2019-01-17T07:03:29.971Z,12.30
2019-01-17T07:05:59.299Z,10.37
2019-01-17T07:08:28.628Z,13.30
2019-01-17T07:10:57.977Z,9.20
2019-01-17T07:13:27.297Z,7.60
2019-01-17T07:15:56.631Z,8.30
2019-01-17T07:18:25.967Z,9.30
2019-01-17T07:20:55.304Z,9.90
2019-01-17T07:23:24.647Z,10.03
2019-01-17T07:25:54.217Z,9.70
2019-01-17T07:28:23.554Z,9.80
2019-01-17T07:30:53.135Z,10.60
2019-01-17T07:33:22.474Z,9.20
2019-01-17T07:35:51.795Z,9.83
2019-01-17T07:38:21.148Z,10.17
2019-01-17T07:40:50.494Z,10.50
2019-01-17T07:43:19.818Z,9.87
2019-01-17T07:45:49.164Z,10.60
2019-01-17T07:48:18.488Z,9.20
2019-01-17T07:50:47.823Z,8.67
2019-01-17T07:53:17.158Z,9.03
2019-01-17T07:55:47.642Z,10.43
2019-01-17T07:58:36.624Z,8.30
2019-01-17T08:01:25.074Z,12.33
2019-01-17T08:03:54.460Z,12.30
2019-01-17T08:06:23.780Z,10.00
2019-01-17T08:08:53.394Z,11.57
2019-01-17T08:11:22.716Z,10.47
2019-01-17T08:13:52.063Z,11.47
2019-01-17T08:16:21.393Z,11.10
2019-01-17T08:18:52.353Z,10.20
2019-01-17T08:21:21.685Z,10.60
2019-01-17T08:23:51.021Z,9.67
2019-01-17T08:26:39.466Z,9.13
2019-01-17T08:29:08.872Z,11.33
2019-01-17T08:31:38.199Z,10.17
2019-01-17T08:34:07.543Z,10.10
2019-01-17T08:36:36.869Z,8.90
2019-01-17T08:39:46.263Z,8.93
2019-01-17T08:42:15.592Z,8.73
2019-01-17T08:44:44.920Z,8.43
2019-01-17T08:47:14.246Z,9.93
2019-01-17T08:49:43.588Z,7.57
2019-01-17T08:52:12.915Z,7.63
2019-01-17T08:54:42.569Z,7.10
2019-01-17T08:57:12.691Z,9.50
2019-01-17T08:59:42.029Z,8.03
2019-01-17T09:02:12.123Z,7.97
2019-01-17T09:04:41.449Z,10.97
2019-01-17T09:07:10.791Z,9.70
2019-01-17T09:09:40.121Z,8.53
2019-01-17T09:12:09.463Z,10.57
2019-01-17T09:14:38.789Z,9.80
2019-01-17T09:17:08.121Z,6.07
2019-01-17T09:19:37.460Z,8.20
2019-01-17T09:22:06.801Z,7.47
2019-01-17T09:24:36.127Z,10.47
2019-01-17T09:27:05.476Z,9.37
2019-01-17T09:29:35.144Z,10.17
2019-01-17T09:32:04.735Z,10.90
2019-01-17T09:34:34.364Z,6.53
2019-01-17T09:37:03.714Z,8.23
2019-01-17T09:39:33.035Z,8.57
2019-01-17T09:42:02.414Z,7.77
2019-01-17T09:44:31.781Z,10.60
2019-01-17T09:47:01.389Z,10.33
2019-01-17T09:49:30.731Z,8.60
2019-01-17T09:52:00.057Z,6.13
2019-01-17T09:54:29.394Z,10.80
2019-01-17T09:56:58.720Z,10.80
2019-01-17T09:59:28.078Z,8.47
2019-01-17T10:01:57.704Z,8.10
2019-01-17T10:04:27.064Z,8.13
2019-01-17T10:06:56.389Z,8.40
2019-01-17T10:09:25.725Z,11.70
2019-01-17T10:11:55.059Z,7.07
2019-01-17T10:14:24.407Z,11.40
2019-01-17T10:20:52.860Z,8.30
2019-01-17T10:30:06.666Z,8.27
2019-01-17T10:36:16.847Z,8.90
2019-01-17T10:39:26.226Z,9.40
2019-01-17T10:46:08.140Z,8.57
2019-01-17T10:49:16.213Z,12.07
2019-01-17T10:52:24.257Z,12.50
2019-01-17T10:55:32.325Z,12.00
2019-01-17T10:58:40.363Z,8.53
2019-01-17T11:05:10.592Z,9.43
2019-01-17T11:11:20.141Z,12.77
2019-01-17T11:14:29.507Z,10.67
2019-01-17T11:20:39.961Z,11.20
2019-01-17T11:23:49.323Z,13.03
2019-01-17T11:26:57.372Z,8.93
2019-01-17T11:30:06.773Z,12.13
2019-01-17T11:33:14.873Z,11.80
2019-01-17T11:36:24.316Z,9.57
2019-01-17T11:39:14.904Z,10.53
2019-01-17T11:42:23.062Z,13.80
2019-01-17T11:45:31.104Z,11.13
2019-01-17T11:48:40.484Z,34.17
2019-01-17T11:54:50.654Z,12.97
2019-01-17T11:57:58.717Z,11.80
2019-01-17T12:04:41.109Z,7.10
2019-01-17T12:10:12.800Z,8.57
2019-01-17T12:15:22.682Z,7.10
2019-01-17T12:21:01.139Z,5.20
2019-01-17T12:23:30.461Z,6.30
2019-01-17T12:28:55.210Z,4.97
2019-01-17T12:31:24.563Z,3.90
2019-01-17T12:33:53.894Z,3.10
2019-01-17T12:36:23.211Z,3.67
2019-01-17T12:38:52.778Z,4.07
2019-01-17T12:41:22.106Z,3.10
2019-01-17T12:43:51.682Z,5.33
2019-01-17T12:46:21.021Z,4.93
2019-01-17T12:48:50.579Z,5.80
2019-01-17T12:51:39.522Z,5.77
2019-01-17T12:54:09.112Z,4.60
2019-01-17T12:56:38.443Z,4.97
2019-01-17T12:59:07.775Z,3.70
2019-01-17T13:01:37.091Z,3.97
2019-01-17T13:04:06.497Z,2.27
2019-01-17T13:09:38.762Z,3.23
2019-01-17T13:12:08.090Z,3.57
2019-01-17T13:14:37.424Z,2.00
2019-01-17T13:17:06.746Z,3.00
2019-01-17T13:22:38.078Z,1.60
2019-01-17T13:28:09.410Z,2.60
2019-01-17T13:30:40.375Z,2.73
2019-01-17T13:33:09.694Z,2.63
2019-01-17T13:35:39.022Z,1.80
2019-01-17T13:38:08.356Z,2.47
2019-01-17T13:40:37.754Z,2.57
2019-01-17T13:43:07.105Z,3.33
2019-01-17T13:45:36.425Z,3.43
2019-01-17T13:48:05.878Z,3.13
2019-01-17T13:50:35.212Z,2.83
2019-01-17T13:56:38.968Z,2.40
2019-01-17T13:59:08.302Z,5.23
2019-01-17T14:01:39.238Z,2.83
2019-01-17T14:04:08.572Z,5.40
2019-01-17T14:06:37.893Z,6.10
2019-01-17T14:09:47.352Z,6.20
2019-01-17T14:12:17.440Z,4.37
2019-01-17T14:14:46.774Z,4.47
2019-01-17T14:17:16.097Z,3.13
2019-01-17T14:19:45.462Z,1.77
2019-01-17T14:22:14.859Z,3.17
2019-01-17T14:24:44.187Z,3.13
2019-01-17T14:27:14.162Z,12.27
2019-01-17T14:33:05.994Z,9.07
2019-01-17T14:35:35.326Z,2.43
2019-01-17T14:38:04.715Z,1.97
2019-01-17T14:40:34.046Z,1.60
2019-01-17T14:43:03.366Z,3.70
2019-01-17T14:45:32.710Z,3.50
2019-01-17T14:48:02.073Z,3.40
2019-01-17T14:53:33.216Z,2.03
2019-01-17T14:56:02.553Z,1.60
2019-01-17T14:58:31.876Z,1.70
2019-01-17T15:01:01.205Z,3.20
2019-01-17T15:03:43.108Z,2.47
2019-01-17T15:06:12.440Z,2.30
2019-01-17T15:09:01.103Z,2.23
2019-01-17T15:11:30.443Z,2.30
2019-01-17T15:14:19.105Z,2.30
2019-01-17T15:16:48.441Z,1.60
2019-01-17T15:19:20.125Z,1.90
2019-01-17T15:21:49.699Z,1.20
2019-01-17T15:24:19.016Z,1.80
2019-01-17T15:26:50.516Z,1.80
2019-01-17T15:29:19.841Z,3.00
2019-01-17T15:31:49.174Z,1.57
2019-01-17T15:34:18.488Z,1.43
2019-01-17T15:36:47.854Z,1.70
2019-01-17T15:39:17.174Z,1.23
2019-01-17T15:41:46.521Z,0.70
2019-01-17T15:44:15.843Z,0.80
2019-01-17T15:46:57.325Z,0.53
2019-01-17T15:49:38.672Z,2.93
2019-01-17T15:52:20.560Z,0.80
2019-01-17T15:54:49.888Z,40.93
2019-01-17T15:57:19.222Z,4.63
2019-01-17T15:59:48.546Z,0.73
2019-01-17T16:02:38.648Z,3.30
2019-01-17T16:05:20.406Z,1.70
2019-01-17T16:07:50.041Z,0.87
2019-01-17T16:10:19.363Z,1.20
2019-01-17T16:12:48.697Z,0.83
2019-01-17T16:18:21.985Z,1.60
2019-01-17T16:21:03.625Z,1.20
2019-01-17T16:23:32.954Z,1.20
2019-01-17T16:26:02.304Z,1.33
2019-01-17T16:28:46.085Z,1.30
2019-01-17T16:31:28.973Z,1.37
2019-01-17T16:33:58.298Z,1.17
2019-01-17T16:36:29.672Z,1.70
2019-01-17T16:39:11.982Z,1.80
2019-01-17T16:41:41.682Z,2.40
2019-01-17T16:44:12.940Z,2.17
2019-01-17T16:46:42.274Z,2.40
2019-01-17T16:49:30.934Z,1.57
2019-01-17T16:52:00.533Z,1.70
2019-01-17T16:54:49.194Z,3.50
2019-01-17T16:57:18.862Z,1.90
2019-01-17T17:03:28.756Z,1.90
2019-01-17T17:05:58.087Z,2.43
2019-01-17T17:08:27.411Z,3.80
2019-01-17T17:10:56.751Z,4.43
2019-01-17T17:13:45.406Z,3.67
2019-01-17T17:16:14.742Z,4.50
2019-01-17T17:18:44.063Z,1.33
2019-01-17T17:21:13.396Z,1.93
2019-01-17T17:23:42.715Z,1.40
2019-01-17T17:26:24.136Z,1.60
2019-01-17T17:28:53.460Z,1.50
2019-01-17T17:31:23.612Z,1.10
2019-01-17T17:33:52.911Z,1.10
2019-01-17T17:36:22.249Z,2.80
2019-01-17T17:38:53.425Z,2.70
2019-01-17T17:41:42.101Z,2.50
2019-01-17T17:44:11.425Z,3.10
2019-01-17T17:47:00.104Z,2.77
2019-01-17T17:49:29.427Z,2.80
2019-01-17T17:51:58.830Z,3.10
2019-01-17T17:54:28.146Z,2.80
2019-01-17T17:56:57.512Z,3.50
2019-01-17T17:59:39.010Z,1.87
2019-01-17T18:07:48.614Z,2.43
2019-01-17T18:10:18.014Z,1.60
2019-01-17T18:13:05.953Z,2.57
2019-01-17T18:15:35.323Z,3.17
2019-01-17T18:18:23.912Z,1.10
2019-01-17T18:20:53.301Z,2.43
2019-01-17T18:23:42.398Z,2.40
2019-01-17T18:26:15.929Z,2.10
2019-01-17T18:28:45.587Z,1.83
2019-01-17T18:31:27.382Z,2.73
2019-01-17T18:33:56.698Z,1.43
2019-01-17T18:36:27.644Z,2.00
2019-01-17T18:38:57.287Z,2.67
2019-01-17T18:41:46.197Z,3.47
2019-01-17T18:44:15.520Z,3.07
2019-01-17T18:46:44.851Z,1.60
2019-01-17T18:49:14.169Z,4.20
2019-01-17T18:51:43.514Z,2.73
2019-01-17T18:54:12.836Z,1.70
2019-01-17T18:56:42.179Z,2.50
2019-01-17T18:59:11.575Z,1.30
2019-01-17T19:01:40.914Z,3.30
2019-01-17T19:04:11.854Z,2.33
2019-01-17T19:07:00.532Z,3.33
2019-01-17T19:09:29.855Z,2.03
2019-01-17T19:11:59.431Z,1.50
2019-01-17T19:14:28.755Z,2.37
2019-01-17T19:16:58.095Z,2.50
2019-01-17T19:19:29.036Z,2.90
2019-01-17T19:21:58.666Z,3.33
2019-01-17T19:24:27.951Z,2.83
2019-01-17T19:26:57.285Z,3.57
2019-01-17T19:29:26.608Z,1.30
2019-01-17T19:31:55.947Z,2.63
2019-01-17T19:37:21.093Z,3.20
2019-01-17T19:39:50.410Z,3.03
2019-01-17T19:42:39.085Z,1.30
2019-01-17T19:45:48.466Z,3.23
2019-01-17T19:48:17.818Z,1.30
2019-01-17T19:50:47.125Z,2.20
2019-01-17T19:53:16.463Z,2.70
2019-01-17T19:55:45.786Z,2.50
2019-01-17T19:58:15.126Z,1.93
2019-01-17T20:00:44.450Z,2.03
2019-01-17T20:03:14.390Z,1.80
2019-01-17T20:05:43.717Z,2.27
2019-01-17T20:08:13.055Z,1.80
2019-01-17T20:10:42.383Z,1.43
2019-01-17T20:13:11.793Z,2.17
2019-01-17T20:15:41.118Z,1.67
2019-01-17T20:18:12.076Z,2.10
2019-01-17T20:20:41.409Z,1.00
2019-01-17T20:23:10.752Z,1.70
2019-01-17T20:25:40.078Z,1.87
2019-01-17T20:28:21.864Z,1.27
2019-01-17T20:30:51.187Z,2.53
2019-01-17T20:33:40.207Z,1.90
2019-01-17T20:36:09.530Z,2.20
2019-01-17T20:38:58.213Z,3.03
2019-01-17T20:41:39.874Z,3.10
2019-01-17T20:44:09.218Z,2.83
2019-01-17T20:46:38.546Z,2.77
2019-01-17T20:49:20.469Z,1.77
2019-01-17T20:52:02.447Z,3.30
2019-01-17T20:54:31.860Z,2.10
2019-01-17T20:57:01.182Z,2.60
2019-01-17T20:59:30.525Z,2.10
2019-01-17T21:02:19.205Z,2.60
2019-01-17T21:04:48.531Z,2.60
2019-01-17T21:07:17.872Z,2.40
2019-01-17T21:09:47.192Z,2.50
2019-01-17T21:12:16.529Z,2.00
2019-01-17T21:14:45.919Z,1.90
2019-01-17T21:17:36.639Z,2.30
2019-01-17T21:20:47.640Z,1.90
2019-01-17T21:23:16.984Z,0.93
2019-01-17T21:25:46.305Z,1.50
2019-01-17T21:28:54.092Z,1.70
2019-01-17T21:31:23.422Z,1.30
2019-01-17T21:33:53.039Z,1.63
2019-01-17T21:36:23.983Z,1.63
2019-01-17T21:39:33.334Z,1.73
2019-01-17T21:42:02.659Z,2.03
2019-01-17T21:44:32.929Z,1.97
2019-01-17T21:47:02.261Z,0.77
2019-01-17T21:49:31.595Z,2.70
2019-01-17T21:52:00.919Z,1.90
2019-01-17T21:54:30.254Z,2.03
2019-01-17T21:56:59.579Z,2.10
2019-01-17T21:59:28.923Z,1.77
2019-01-17T22:01:58.243Z,2.30
2019-01-17T22:04:27.581Z,1.63
2019-01-17T22:06:56.902Z,1.23
2019-01-17T22:09:33.945Z,1.57
2019-01-17T22:12:03.287Z,1.80
2019-01-17T22:14:32.859Z,2.53
2019-01-17T22:17:04.055Z,1.60
2019-01-17T22:19:33.395Z,2.17
2019-01-17T22:22:02.955Z,1.63
2019-01-17T22:24:32.298Z,0.80
2019-01-17T22:27:01.668Z,2.20
2019-01-17T22:29:31.007Z,1.43
2019-01-17T22:32:00.325Z,2.47
2019-01-17T22:34:29.666Z,2.07
2019-01-17T22:36:59.250Z,2.27
2019-01-17T22:39:40.549Z,1.70
2019-01-17T22:42:09.874Z,1.30
2019-01-17T22:44:39.278Z,1.60
2019-01-17T22:47:08.609Z,1.93
2019-01-17T22:49:38.188Z,1.90
2019-01-17T22:52:07.511Z,1.77
2019-01-17T22:54:36.853Z,2.47
2019-01-17T22:57:06.174Z,1.47
2019-01-17T22:59:35.508Z,2.00
2019-01-17T23:02:06.535Z,2.00
2019-01-17T23:04:35.871Z,2.20
2019-01-17T23:07:05.585Z,2.90
2019-01-17T23:09:35.172Z,2.60
2019-01-17T23:12:04.560Z,1.90
2019-01-17T23:14:46.079Z,2.33
2019-01-17T23:17:15.397Z,2.47
2019-01-17T23:19:44.743Z,2.17
2019-01-17T23:22:14.066Z,2.60
2019-01-17T23:24:43.846Z,2.20
2019-01-17T23:27:13.295Z,2.30
2019-01-17T23:29:42.644Z,2.57
2019-01-17T23:32:24.515Z,2.67
2019-01-17T23:34:53.862Z,2.57
2019-01-17T23:41:15.017Z,3.13
2019-01-17T23:44:01.429Z,2.40
2019-01-17T23:46:32.505Z,2.10
